createdAt,value
2019-01-08T00:01:10.401Z,99929.42
2019-01-08T00:03:36.551Z,99922.63
2019-01-08T00:06:02.788Z,99906.14
2019-01-08T00:08:28.980Z,99900.81
2019-01-08T00:10:55.211Z,99887.14
2019-01-08T00:13:21.423Z,99883.03
2019-01-08T00:15:47.600Z,99875.80
2019-01-08T00:18:13.819Z,99885.50
2019-01-08T00:20:41.913Z,99876.31
2019-01-08T00:23:08.113Z,99865.70
2019-01-08T00:25:34.350Z,99860.65
2019-01-08T00:28:00.524Z,99847.14
2019-01-08T00:30:26.761Z,99853.41
2019-01-08T00:32:53.101Z,99857.09
2019-01-08T00:35:19.333Z,99853.53
2019-01-08T00:37:45.519Z,99854.30
2019-01-08T00:40:12.037Z,99841.80
2019-01-08T00:42:38.276Z,99851.73
2019-01-08T00:45:04.691Z,99837.30
2019-01-08T00:47:31.002Z,99844.75
2019-01-08T00:49:57.192Z,99841.19
2019-01-08T00:52:23.410Z,99829.77
2019-01-08T00:54:49.995Z,99813.55
2019-01-08T00:57:16.186Z,99801.80
2019-01-08T00:59:42.409Z,99801.86
2019-01-08T01:02:08.674Z,99784.78
2019-01-08T01:04:34.861Z,99777.42
2019-01-08T01:07:01.060Z,99780.92
2019-01-08T01:09:27.320Z,99774.34
2019-01-08T01:11:53.535Z,99763.86
2019-01-08T01:14:19.696Z,99760.47
2019-01-08T01:16:45.908Z,99745.48
2019-01-08T01:19:12.100Z,99735.80
2019-01-08T01:21:38.737Z,99735.15
2019-01-08T01:24:04.983Z,99741.72
2019-01-08T01:26:31.170Z,99738.91
2019-01-08T01:29:00.237Z,99735.30
2019-01-08T01:31:26.301Z,99720.46
2019-01-08T01:33:52.472Z,99722.47
2019-01-08T01:36:18.974Z,99702.84
2019-01-08T01:38:45.152Z,99689.02
2019-01-08T01:41:11.328Z,99692.50
2019-01-08T01:43:37.609Z,99677.27
2019-01-08T01:46:04.170Z,99675.00
2019-01-08T01:48:30.562Z,99684.86
2019-01-08T01:50:56.758Z,99650.86
2019-01-08T01:53:22.960Z,99648.08
2019-01-08T01:55:49.141Z,99653.63
2019-01-08T01:58:15.431Z,99646.78
2019-01-08T02:00:41.642Z,99639.70
2019-01-08T02:03:07.844Z,99621.76
2019-01-08T02:05:34.100Z,99641.71
2019-01-08T02:08:00.587Z,99623.59
2019-01-08T02:10:26.759Z,99621.06
2019-01-08T02:12:52.976Z,99603.84
2019-01-08T02:15:19.422Z,99595.63
2019-01-08T02:17:45.649Z,99593.93
2019-01-08T02:20:11.958Z,99596.72
2019-01-08T02:22:38.125Z,99584.94
2019-01-08T02:25:04.431Z,99581.87
2019-01-08T02:27:30.652Z,99577.45
2019-01-08T02:29:56.934Z,99563.52
2019-01-08T02:32:23.127Z,99551.93
2019-01-08T02:34:49.426Z,99568.94
2019-01-08T02:37:15.598Z,99562.70
2019-01-08T02:39:41.933Z,99559.42
2019-01-08T02:42:08.163Z,99548.36
2019-01-08T02:44:34.366Z,99550.52
2019-01-08T02:47:00.647Z,99525.98
2019-01-08T02:49:26.947Z,99536.28
2019-01-08T02:51:53.186Z,99520.47
2019-01-08T02:54:19.824Z,99514.18
2019-01-08T02:56:46.071Z,99506.97
2019-01-08T02:59:12.298Z,99508.28
2019-01-08T03:01:38.595Z,99484.84
2019-01-08T03:04:04.795Z,99478.61
2019-01-08T03:06:31.400Z,99470.15
2019-01-08T03:08:58.035Z,99460.49
2019-01-08T03:11:24.244Z,99460.48
2019-01-08T03:13:50.430Z,99473.66
2019-01-08T03:16:16.710Z,99450.34
2019-01-08T03:18:42.889Z,99445.47
2019-01-08T03:21:09.119Z,99440.52
2019-01-08T03:23:35.425Z,99424.09
2019-01-08T03:26:01.674Z,99404.53
2019-01-08T03:28:28.063Z,99416.70
2019-01-08T03:30:54.336Z,99406.20
2019-01-08T03:33:20.515Z,99383.64
2019-01-08T03:35:46.849Z,99413.95
2019-01-08T03:38:13.047Z,99406.52
2019-01-08T03:40:39.303Z,99398.47
2019-01-08T03:43:05.501Z,99391.91
2019-01-08T03:45:32.064Z,99390.92
2019-01-08T03:47:58.260Z,99388.42
2019-01-08T03:50:24.468Z,99366.63
2019-01-08T03:52:57.896Z,99385.64
2019-01-08T03:55:24.117Z,99379.62
2019-01-08T03:57:50.346Z,99372.91
2019-01-08T04:00:16.612Z,99364.73
2019-01-08T04:02:43.948Z,99366.27
2019-01-08T04:05:10.186Z,99370.58
2019-01-08T04:07:36.665Z,99367.87
2019-01-08T04:10:06.236Z,99371.44
2019-01-08T04:12:32.755Z,99364.29
2019-01-08T04:14:58.936Z,99353.80
2019-01-08T04:17:25.319Z,99339.60
2019-01-08T04:19:51.510Z,99340.92
2019-01-08T04:22:17.736Z,99358.02
2019-01-08T04:24:45.837Z,99341.20
2019-01-08T04:27:12.377Z,99338.96
2019-01-08T04:29:38.563Z,99333.45
2019-01-08T04:32:04.804Z,99321.88
2019-01-08T04:34:31.108Z,99325.53
2019-01-08T04:36:57.328Z,99323.91
2019-01-08T04:39:24.945Z,99330.03
2019-01-08T04:41:51.408Z,99316.63
2019-01-08T04:44:17.583Z,99290.78
2019-01-08T04:46:43.790Z,99308.84
2019-01-08T04:49:09.981Z,99313.91
2019-01-08T04:51:36.233Z,99307.53
2019-01-08T04:54:02.391Z,99292.99
2019-01-08T04:56:28.660Z,99294.34
2019-01-08T04:58:54.844Z,99276.86
2019-01-08T05:01:21.064Z,99285.06
2019-01-08T05:03:47.371Z,99290.54
2019-01-08T05:06:13.529Z,99281.56
2019-01-08T05:08:39.791Z,99271.56
2019-01-08T05:11:05.970Z,99267.30
2019-01-08T05:13:32.175Z,99260.53
2019-01-08T05:15:58.356Z,99253.58
2019-01-08T05:18:24.672Z,99248.78
2019-01-08T05:20:50.825Z,99243.20
2019-01-08T05:23:17.033Z,99245.59
2019-01-08T05:25:43.229Z,99252.91
2019-01-08T05:28:10.811Z,99235.42
2019-01-08T05:30:37.017Z,99244.59
2019-01-08T05:33:03.267Z,99240.73
2019-01-08T05:35:29.712Z,99234.54
2019-01-08T05:37:55.984Z,99233.28
2019-01-08T05:40:22.158Z,99227.28
2019-01-08T05:42:48.372Z,99227.89
2019-01-08T05:45:14.541Z,99224.55
2019-01-08T05:47:40.778Z,99218.55
2019-01-08T05:50:06.945Z,99222.11
2019-01-08T05:52:33.191Z,99206.63
2019-01-08T05:54:59.927Z,99204.93
2019-01-08T05:57:26.139Z,99200.39
2019-01-08T05:59:52.303Z,99200.98
2019-01-08T06:02:18.511Z,99189.83
2019-01-08T06:04:44.834Z,99190.86
2019-01-08T06:07:11.047Z,99186.48
2019-01-08T06:09:37.300Z,99184.56
2019-01-08T06:12:03.521Z,99180.02
2019-01-08T06:14:29.705Z,99168.42
2019-01-08T06:16:55.873Z,99169.45
2019-01-08T06:19:22.079Z,99162.29
2019-01-08T06:21:48.305Z,99164.96
2019-01-08T06:24:14.512Z,99155.08
2019-01-08T06:26:40.683Z,99151.02
2019-01-08T06:29:06.935Z,99138.39
2019-01-08T06:31:33.113Z,99131.78
2019-01-08T06:33:59.320Z,99121.72
2019-01-08T06:36:26.348Z,99113.47
2019-01-08T06:38:52.598Z,99115.23
2019-01-08T06:41:18.763Z,99110.82
2019-01-08T06:43:44.983Z,99116.17
2019-01-08T06:46:11.147Z,99107.23
2019-01-08T06:48:37.342Z,99106.73
2019-01-08T06:51:03.536Z,99107.17
2019-01-08T06:53:29.721Z,99105.98
2019-01-08T06:55:55.936Z,99104.29
2019-01-08T06:58:22.498Z,99107.35
2019-01-08T07:00:48.673Z,99105.02
2019-01-08T07:03:14.904Z,99099.72
2019-01-08T07:05:41.080Z,99107.41
2019-01-08T07:08:07.277Z,99094.14
2019-01-08T07:10:33.598Z,99089.38
2019-01-08T07:12:59.817Z,99092.28
2019-01-08T07:15:26.037Z,99076.66
2019-01-08T07:17:52.197Z,99081.41
2019-01-08T07:20:18.434Z,99074.36
2019-01-08T07:22:44.605Z,99062.06
2019-01-08T07:25:10.828Z,99060.22
2019-01-08T07:27:37.015Z,99057.91
2019-01-08T07:30:03.925Z,99053.32
2019-01-08T07:32:30.087Z,99049.11
2019-01-08T07:34:56.320Z,99038.93
2019-01-08T07:37:22.486Z,99031.20
2019-01-08T07:39:48.918Z,99021.45
2019-01-08T07:42:15.097Z,99036.47
2019-01-08T07:44:41.326Z,99023.27
2019-01-08T07:47:07.537Z,99013.02
2019-01-08T07:49:33.883Z,99014.09
2019-01-08T07:52:00.107Z,98997.45
2019-01-08T07:54:26.318Z,99005.45
2019-01-08T07:56:52.551Z,98981.58
2019-01-08T07:59:18.755Z,99010.34
2019-01-08T08:01:44.940Z,99000.75
2019-01-08T08:04:11.199Z,98981.00
2019-01-08T08:06:37.383Z,99007.50
2019-01-08T08:09:05.349Z,98987.52
2019-01-08T08:11:31.602Z,98988.37
2019-01-08T08:13:57.805Z,98978.28
2019-01-08T08:16:24.001Z,98966.66
2019-01-08T08:18:50.602Z,98958.33
2019-01-08T08:21:17.103Z,98961.48
2019-01-08T08:23:43.272Z,98962.21
2019-01-08T08:26:09.479Z,98961.27
2019-01-08T08:28:35.667Z,98921.73
2019-01-08T08:31:01.894Z,98939.01
2019-01-08T08:33:28.076Z,98947.05
2019-01-08T08:35:54.290Z,98957.47
2019-01-08T08:38:20.472Z,98947.33
2019-01-08T08:40:46.755Z,98932.12
2019-01-08T08:43:13.587Z,98943.81
2019-01-08T08:45:39.894Z,98923.78
2019-01-08T08:48:06.071Z,98926.41
2019-01-08T08:50:32.254Z,98928.24
2019-01-08T08:52:58.519Z,98929.72
2019-01-08T08:55:24.707Z,98925.29
2019-01-08T08:57:50.887Z,98916.55
2019-01-08T09:00:17.233Z,98929.30
2019-01-08T09:02:43.398Z,98933.14
2019-01-08T09:05:09.656Z,98922.56
2019-01-08T09:07:35.817Z,98914.84
2019-01-08T09:10:03.253Z,98915.99
2019-01-08T09:12:29.428Z,98916.45
2019-01-08T09:14:55.984Z,98917.93
2019-01-08T09:17:22.146Z,98914.64
2019-01-08T09:19:48.389Z,98909.72
2019-01-08T09:22:14.620Z,98908.08
2019-01-08T09:24:40.888Z,98906.73
2019-01-08T09:27:07.046Z,98907.52
2019-01-08T09:29:33.222Z,98903.41
2019-01-08T09:31:59.431Z,98899.96
2019-01-08T09:34:25.922Z,98887.02
2019-01-08T09:36:52.116Z,98851.86
2019-01-08T09:39:18.400Z,98860.83
2019-01-08T09:41:44.628Z,98866.85
2019-01-08T09:44:10.807Z,98869.25
2019-01-08T09:46:37.026Z,98868.72
2019-01-08T09:49:03.198Z,98865.94
2019-01-08T09:51:29.426Z,98843.41
2019-01-08T09:53:55.620Z,98867.38
2019-01-08T09:56:21.812Z,98862.48
2019-01-08T09:58:48.352Z,98861.95
2019-01-08T10:01:14.553Z,98852.64
2019-01-08T10:03:40.931Z,98844.86
2019-01-08T10:06:07.142Z,98863.02
2019-01-08T10:08:33.308Z,98846.48
2019-01-08T10:11:19.385Z,98829.71
2019-01-08T10:13:45.561Z,98814.08
2019-01-08T10:16:11.765Z,98805.89
2019-01-08T10:18:37.939Z,98790.63
2019-01-08T10:21:04.188Z,98779.33
2019-01-08T10:23:30.341Z,98790.56
2019-01-08T10:25:56.532Z,98782.20
2019-01-08T10:28:22.714Z,98782.58
2019-01-08T10:30:48.891Z,98780.19
2019-01-08T10:33:15.090Z,98782.14
2019-01-08T10:35:41.254Z,98768.63
2019-01-08T10:38:07.489Z,98776.77
2019-01-08T10:40:33.650Z,98766.12
2019-01-08T10:42:59.867Z,98748.84
2019-01-08T10:45:26.046Z,98752.25
2019-01-08T10:47:52.244Z,98717.95
2019-01-08T10:50:18.418Z,98718.07
2019-01-08T10:52:44.608Z,98730.17
2019-01-08T10:55:10.772Z,98721.02
2019-01-08T10:57:36.983Z,98711.78
2019-01-08T11:00:07.265Z,98706.92
2019-01-08T11:02:33.465Z,98702.59
2019-01-08T11:04:59.732Z,98695.44
2019-01-08T11:07:25.948Z,98684.55
2019-01-08T11:09:52.312Z,98680.09
2019-01-08T11:12:18.527Z,98675.97
2019-01-08T11:14:44.739Z,98668.53
2019-01-08T11:17:11.203Z,98667.83
2019-01-08T11:19:37.367Z,98642.83
2019-01-08T11:22:03.576Z,98637.23
2019-01-08T11:24:29.767Z,98618.78
2019-01-08T11:26:55.981Z,98626.36
2019-01-08T11:29:22.158Z,98620.64
2019-01-08T11:31:48.917Z,98603.92
2019-01-08T11:34:15.503Z,98603.30
2019-01-08T11:36:41.931Z,98589.41
2019-01-08T11:39:08.104Z,98582.27
2019-01-08T11:41:34.320Z,98571.98
2019-01-08T11:44:00.547Z,98568.56
2019-01-08T11:46:26.697Z,98551.81
2019-01-08T11:48:52.901Z,98544.61
2019-01-08T11:51:19.460Z,98555.14
2019-01-08T11:53:45.965Z,98558.71
2019-01-08T11:56:12.136Z,98559.86
2019-01-08T11:58:38.360Z,98559.33
2019-01-08T12:01:04.518Z,98523.44
2019-01-08T12:03:31.102Z,98499.84
2019-01-08T12:05:57.503Z,98498.48
2019-01-08T12:08:23.784Z,98518.89
2019-01-08T12:10:49.967Z,98503.84
2019-01-08T12:13:16.219Z,98502.92
2019-01-08T12:15:42.378Z,98505.65
2019-01-08T12:18:08.923Z,98478.84
2019-01-08T12:20:35.203Z,98482.41
2019-01-08T12:23:01.414Z,98476.95
2019-01-08T12:25:29.512Z,98471.82
2019-01-08T12:27:55.728Z,98474.62
2019-01-08T12:30:21.942Z,98476.23
2019-01-08T12:32:48.455Z,98454.39
2019-01-08T12:35:14.583Z,98474.41
2019-01-08T12:37:42.127Z,98464.56
2019-01-08T12:40:08.487Z,98453.08
2019-01-08T12:42:34.736Z,98482.13
2019-01-08T12:45:00.932Z,98479.02
2019-01-08T12:47:27.197Z,98469.34
2019-01-08T12:49:54.469Z,98470.95
2019-01-08T12:52:20.827Z,98479.80
2019-01-08T12:54:47.031Z,98487.66
2019-01-08T12:57:13.218Z,98443.30
2019-01-08T12:59:39.424Z,98462.29
2019-01-08T13:02:14.270Z,98483.08
2019-01-08T13:04:33.872Z,98473.84
2019-01-08T13:07:00.039Z,98482.30
2019-01-08T13:09:26.280Z,98476.98
2019-01-08T13:11:52.469Z,98473.28
2019-01-08T13:14:18.669Z,98472.25
2019-01-08T13:16:44.840Z,98462.66
2019-01-08T13:19:11.332Z,98484.41
2019-01-08T13:21:37.572Z,98478.51
2019-01-08T13:24:05.730Z,98468.27
2019-01-08T13:26:31.883Z,98475.58
2019-01-08T13:28:58.064Z,98480.11
2019-01-08T13:31:24.264Z,98469.57
2019-01-08T13:33:50.595Z,98474.30
2019-01-08T13:36:16.771Z,98465.12
2019-01-08T13:38:43.002Z,98482.95
2019-01-08T13:41:09.256Z,98470.83
2019-01-08T13:43:35.557Z,98466.59
2019-01-08T13:46:02.066Z,98463.31
2019-01-08T13:48:28.629Z,98468.42
2019-01-08T13:50:56.700Z,98453.86
2019-01-08T13:53:22.934Z,98462.25
2019-01-08T13:55:49.104Z,98440.81
2019-01-08T13:58:15.317Z,98448.89
2019-01-08T14:00:41.508Z,98448.42
2019-01-08T14:03:07.727Z,98452.61
2019-01-08T14:05:33.886Z,98443.31
2019-01-08T14:08:00.137Z,98434.81
2019-01-08T14:10:26.321Z,98432.70
2019-01-08T14:12:52.520Z,98433.59
2019-01-08T14:15:19.802Z,98451.00
2019-01-08T14:17:46.180Z,98438.75
2019-01-08T14:20:12.553Z,98434.86
2019-01-08T14:22:38.792Z,98438.84
2019-01-08T14:25:05.022Z,98435.61
2019-01-08T14:27:31.259Z,98438.27
2019-01-08T14:29:57.474Z,98425.19
2019-01-08T14:32:23.625Z,98437.04
2019-01-08T14:34:49.852Z,98448.45
2019-01-08T14:37:16.175Z,98404.52
2019-01-08T14:39:42.932Z,98431.15
2019-01-08T14:42:09.121Z,98442.51
2019-01-08T14:44:35.356Z,98437.59
2019-01-08T14:47:02.523Z,98423.69
2019-01-08T14:49:28.764Z,98436.48
2019-01-08T14:51:54.933Z,98443.39
2019-01-08T14:54:21.160Z,98452.80
2019-01-08T14:56:47.393Z,98435.73
2019-01-08T14:59:13.688Z,98440.35
2019-01-08T15:01:39.852Z,98445.11
2019-01-08T15:04:06.074Z,98442.33
2019-01-08T15:06:32.252Z,98442.95
2019-01-08T15:08:58.754Z,98435.73
2019-01-08T15:11:24.920Z,98446.24
2019-01-08T15:13:51.122Z,98445.25
2019-01-08T15:16:17.305Z,98437.86
2019-01-08T15:18:43.513Z,98448.81
2019-01-08T15:21:09.708Z,98447.34
2019-01-08T15:23:35.928Z,98458.81
2019-01-08T15:26:02.123Z,98456.52
2019-01-08T15:28:28.381Z,98447.80
2019-01-08T15:30:54.616Z,98453.36
2019-01-08T15:33:21.336Z,98457.28
2019-01-08T15:35:47.545Z,98464.50
2019-01-08T15:38:13.879Z,98465.48
2019-01-08T15:40:40.111Z,98476.63
2019-01-08T15:43:06.338Z,98461.02
2019-01-08T15:45:32.522Z,98451.45
2019-01-08T15:48:13.634Z,98447.94
2019-01-08T15:50:51.455Z,98447.05
2019-01-08T15:53:27.833Z,98448.48
2019-01-08T15:55:59.798Z,98430.94
2019-01-08T15:58:32.463Z,98447.98
2019-01-08T16:00:58.920Z,98452.90
2019-01-08T16:03:25.120Z,98439.45
2019-01-08T16:05:51.314Z,98446.66
2019-01-08T16:08:17.518Z,98452.06
2019-01-08T16:10:43.701Z,98443.70
2019-01-08T16:13:09.958Z,98456.02
2019-01-08T16:15:36.160Z,98446.66
2019-01-08T16:18:02.399Z,98444.02
2019-01-08T16:20:28.845Z,98453.04
2019-01-08T16:22:54.996Z,98444.84
2019-01-08T16:25:21.171Z,98456.65
2019-01-08T16:27:48.777Z,98441.69
2019-01-08T16:30:15.004Z,98466.13
2019-01-08T16:32:41.256Z,98456.98
2019-01-08T16:35:07.390Z,98448.09
2019-01-08T16:37:33.576Z,98447.44
2019-01-08T16:40:00.049Z,98440.05
2019-01-08T16:42:26.248Z,98441.55
2019-01-08T16:44:52.425Z,98445.35
2019-01-08T16:47:18.921Z,98450.43
2019-01-08T16:49:45.249Z,98445.70
2019-01-08T16:52:11.459Z,98444.08
2019-01-08T16:54:37.822Z,98443.45
2019-01-08T16:57:05.636Z,98456.56
2019-01-08T16:59:31.978Z,98457.72
2019-01-08T17:01:58.411Z,98447.22
2019-01-08T17:04:24.582Z,98453.13
2019-01-08T17:06:50.841Z,98453.89
2019-01-08T17:09:17.022Z,98448.48
2019-01-08T17:11:43.363Z,98455.52
2019-01-08T17:14:09.577Z,98450.59
2019-01-08T17:16:35.812Z,98441.72
2019-01-08T17:19:02.036Z,98453.17
2019-01-08T17:21:28.267Z,98451.20
2019-01-08T17:23:54.761Z,98433.35
2019-01-08T17:26:21.113Z,98444.84
2019-01-08T17:28:50.279Z,98443.98
2019-01-08T17:31:16.815Z,98436.28
2019-01-08T17:33:43.023Z,98438.41
2019-01-08T17:36:11.166Z,98432.18
2019-01-08T17:38:37.367Z,98437.41
2019-01-08T17:41:03.887Z,98418.69
2019-01-08T17:43:33.711Z,98424.23
2019-01-08T17:45:58.208Z,98420.45
2019-01-08T17:48:24.690Z,98425.37
2019-01-08T17:50:50.873Z,98428.34
2019-01-08T17:53:17.408Z,98434.73
2019-01-08T17:55:43.586Z,98430.19
2019-01-08T17:58:37.152Z,98428.05
2019-01-08T18:01:08.644Z,98434.22
2019-01-08T18:03:42.514Z,98432.89
2019-01-08T18:06:03.256Z,98442.22
2019-01-08T18:08:29.840Z,98441.00
2019-01-08T18:10:56.031Z,98432.06
2019-01-08T18:13:22.280Z,98418.71
2019-01-08T18:15:48.559Z,98425.72
2019-01-08T18:18:14.801Z,98409.25
2019-01-08T18:20:40.976Z,98419.20
2019-01-08T18:23:07.257Z,98417.34
2019-01-08T18:25:33.510Z,98421.25
2019-01-08T18:28:00.057Z,98417.43
2019-01-08T18:30:26.235Z,98415.25
2019-01-08T18:32:52.495Z,98412.54
2019-01-08T18:35:18.970Z,98422.48
2019-01-08T18:37:45.299Z,98413.08
2019-01-08T18:40:13.579Z,98418.63
2019-01-08T18:42:39.878Z,98423.67
2019-01-08T18:45:06.697Z,98422.20
2019-01-08T18:47:32.916Z,98421.52
2019-01-08T18:49:59.087Z,98419.84
2019-01-08T18:52:25.319Z,98426.05
2019-01-08T18:54:51.526Z,98423.23
2019-01-08T18:57:18.091Z,98425.33
2019-01-08T18:59:44.283Z,98419.73
2019-01-08T19:02:10.467Z,98423.50
2019-01-08T19:04:36.785Z,98431.63
2019-01-08T19:07:03.297Z,98433.56
2019-01-08T19:09:31.345Z,98431.23
2019-01-08T19:11:58.420Z,98437.62
2019-01-08T19:14:31.962Z,98416.95
2019-01-08T19:16:58.157Z,98430.78
2019-01-08T19:19:24.391Z,98430.55
2019-01-08T19:21:50.856Z,98422.52
2019-01-08T19:24:17.169Z,98424.63
2019-01-08T19:26:43.362Z,98428.03
2019-01-08T19:29:09.672Z,98437.20
2019-01-08T19:31:36.202Z,98432.97
2019-01-08T19:34:09.086Z,98427.60
2019-01-08T19:36:30.638Z,98429.73
2019-01-08T19:38:57.454Z,98419.28
2019-01-08T19:41:23.662Z,98431.27
2019-01-08T19:43:50.237Z,98421.77
2019-01-08T19:46:16.371Z,98428.84
2019-01-08T19:48:42.674Z,98442.41
2019-01-08T19:51:09.160Z,98440.24
2019-01-08T19:53:35.472Z,98438.70
2019-01-08T19:56:01.645Z,98443.91
2019-01-08T19:58:29.598Z,98442.53
2019-01-08T20:00:56.370Z,98460.30
2019-01-08T20:03:22.979Z,98472.88
2019-01-08T20:05:49.186Z,98485.93
2019-01-08T20:08:15.392Z,98492.60
2019-01-08T20:10:41.686Z,98489.95
2019-01-08T20:13:07.907Z,98485.81
2019-01-08T20:15:34.439Z,98493.73
2019-01-08T20:18:00.668Z,98500.39
2019-01-08T20:20:27.084Z,98502.48
2019-01-08T20:22:53.251Z,98507.03
2019-01-08T20:25:19.458Z,98511.28
2019-01-08T20:27:45.648Z,98500.94
2019-01-08T20:30:11.875Z,98500.70
2019-01-08T20:32:38.055Z,98502.59
2019-01-08T20:35:04.317Z,98499.72
2019-01-08T20:37:30.510Z,98503.58
2019-01-08T20:39:56.745Z,98505.53
2019-01-08T20:42:22.949Z,98498.25
2019-01-08T20:44:49.178Z,98501.52
2019-01-08T20:47:15.355Z,98492.98
2019-01-08T20:49:41.784Z,98496.21
2019-01-08T20:52:08.000Z,98488.48
2019-01-08T20:54:34.545Z,98480.91
2019-01-08T20:57:08.612Z,98491.83
2019-01-08T20:59:28.820Z,98489.17
2019-01-08T21:01:55.016Z,98486.19
2019-01-08T21:04:21.271Z,98484.52
2019-01-08T21:06:47.451Z,98494.32
2019-01-08T21:09:13.704Z,98486.42
2019-01-08T21:11:40.209Z,98493.27
2019-01-08T21:14:06.420Z,98495.55
2019-01-08T21:16:32.632Z,98491.63
2019-01-08T21:18:59.214Z,98492.55
2019-01-08T21:21:25.366Z,98496.60
2019-01-08T21:23:51.643Z,98483.85
2019-01-08T21:26:17.887Z,98494.80
2019-01-08T21:28:44.112Z,98494.31
2019-01-08T21:31:10.681Z,98495.62
2019-01-08T21:33:37.244Z,98497.74
2019-01-08T21:36:03.691Z,98491.53
2019-01-08T21:38:29.918Z,98492.34
2019-01-08T21:40:56.163Z,98488.22
2019-01-08T21:43:22.415Z,98485.56
2019-01-08T21:45:48.824Z,98492.23
2019-01-08T21:48:15.022Z,98483.64
2019-01-08T21:50:41.233Z,98487.83
2019-01-08T21:53:07.401Z,98479.87
2019-01-08T21:55:33.651Z,98484.39
2019-01-08T21:57:59.844Z,98481.41
2019-01-08T22:00:26.067Z,98480.30
2019-01-08T22:02:52.345Z,98471.25
2019-01-08T22:05:18.603Z,98477.59
2019-01-08T22:07:44.779Z,98488.81
2019-01-08T22:10:11.468Z,98485.17
2019-01-08T22:12:38.041Z,98482.23
2019-01-08T22:15:05.262Z,98479.73
2019-01-08T22:17:31.445Z,98478.21
2019-01-08T22:19:57.680Z,98469.19
2019-01-08T22:22:23.869Z,98473.71
2019-01-08T22:24:50.107Z,98482.98
2019-01-08T22:27:16.305Z,98478.23
2019-01-08T22:29:44.690Z,98462.51
2019-01-08T22:32:10.905Z,98468.30
2019-01-08T22:34:37.150Z,98469.27
2019-01-08T22:37:03.323Z,98479.02
2019-01-08T22:39:29.535Z,98474.24
2019-01-08T22:41:55.722Z,98481.63
2019-01-08T22:44:21.937Z,98488.78
2019-01-08T22:46:48.109Z,98495.42
2019-01-08T22:49:14.622Z,98504.63
2019-01-08T22:51:40.794Z,98504.86
2019-01-08T22:54:07.154Z,98496.28
2019-01-08T22:56:34.263Z,98498.13
2019-01-08T22:59:00.427Z,98492.19
2019-01-08T23:01:28.651Z,98491.50
2019-01-08T23:03:54.823Z,98493.45
2019-01-08T23:06:21.058Z,98489.38
2019-01-08T23:08:47.240Z,98500.31
2019-01-08T23:11:13.710Z,98496.23
2019-01-08T23:13:39.890Z,98499.37
2019-01-08T23:16:06.126Z,98499.53
2019-01-08T23:18:32.433Z,98504.77
2019-01-08T23:20:58.660Z,98502.77
2019-01-08T23:23:24.889Z,98501.41
2019-01-08T23:25:51.641Z,98491.07
2019-01-08T23:28:17.807Z,98484.33
2019-01-08T23:30:44.881Z,98488.23
2019-01-08T23:33:11.165Z,98484.00
2019-01-08T23:35:37.401Z,98482.05
2019-01-08T23:38:03.600Z,98475.39
2019-01-08T23:40:29.831Z,98476.00
2019-01-08T23:42:56.017Z,98478.45
2019-01-08T23:45:22.250Z,98474.81
2019-01-08T23:47:50.359Z,98475.13
2019-01-08T23:50:16.612Z,98471.48
2019-01-08T23:52:53.897Z,98479.80
2019-01-08T23:55:22.215Z,98479.76
2019-01-08T23:57:48.379Z,98475.84
